createdAt,value
2022-07-26T00:00:14.881Z,59.50
2022-07-26T00:02:47.928Z,59.32
2022-07-26T00:05:17.099Z,59.49
2022-07-26T00:07:44.812Z,59.89
2022-07-26T00:10:12.757Z,59.31
2022-07-26T00:12:40.395Z,59.46
2022-07-26T00:15:10.180Z,58.76
2022-07-26T00:17:37.864Z,59.08
2022-07-26T00:20:05.791Z,58.89
2022-07-26T00:22:35.972Z,59.69
2022-07-26T00:25:06.509Z,58.87
2022-07-26T00:27:37.443Z,58.82
2022-07-26T00:30:07.157Z,58.85
2022-07-26T00:32:34.563Z,58.86
2022-07-26T00:35:01.813Z,59.01
2022-07-26T00:37:30.929Z,58.86
2022-07-26T00:39:58.183Z,58.77
2022-07-26T00:42:25.335Z,58.72
2022-07-26T00:44:52.599Z,59.90
2022-07-26T00:47:20.020Z,59.47
2022-07-26T00:49:47.304Z,60.20
2022-07-26T00:52:14.742Z,59.89
2022-07-26T00:54:45.987Z,60.65
2022-07-26T00:57:14.244Z,60.98
2022-07-26T00:59:41.786Z,60.82
2022-07-26T01:02:10.316Z,60.71
2022-07-26T01:04:37.777Z,60.87
2022-07-26T01:07:15.058Z,60.05
2022-07-26T01:09:43.767Z,59.95
2022-07-26T01:12:11.488Z,60.17
2022-07-26T01:14:38.665Z,60.19
2022-07-26T01:17:05.970Z,60.60
2022-07-26T01:19:33.535Z,60.11
2022-07-26T01:22:01.877Z,60.86
2022-07-26T01:24:29.283Z,60.75
2022-07-26T01:26:57.157Z,61.43
2022-07-26T01:29:34.623Z,61.10
2022-07-26T01:32:05.225Z,60.45
2022-07-26T01:34:32.636Z,60.58
2022-07-26T01:37:00.368Z,60.25
2022-07-26T01:39:29.237Z,59.80
2022-07-26T01:41:57.035Z,59.83
2022-07-26T01:44:24.616Z,59.95
2022-07-26T01:46:52.079Z,59.83
2022-07-26T01:49:19.695Z,59.62
2022-07-26T01:51:47.143Z,59.59
2022-07-26T01:54:14.679Z,60.03
2022-07-26T01:56:49.929Z,60.56
2022-07-26T01:59:17.136Z,59.98
2022-07-26T02:01:44.470Z,60.70
2022-07-26T02:04:31.653Z,59.80
2022-07-26T02:06:58.968Z,61.35
2022-07-26T02:09:26.093Z,60.24
2022-07-26T02:11:56.156Z,59.81
2022-07-26T02:14:25.594Z,61.43
2022-07-26T02:17:00.060Z,60.71
2022-07-26T02:19:31.718Z,61.80
2022-07-26T02:21:59.854Z,62.49
2022-07-26T02:24:29.219Z,61.32
2022-07-26T02:26:57.763Z,60.40
2022-07-26T02:29:25.746Z,60.46
2022-07-26T02:31:54.975Z,59.54
2022-07-26T02:34:22.273Z,59.30
2022-07-26T02:36:50.159Z,60.04
2022-07-26T02:39:17.675Z,61.75
2022-07-26T02:41:45.240Z,60.43
2022-07-26T02:44:12.628Z,61.78
2022-07-26T02:46:40.078Z,61.67
2022-07-26T02:49:07.694Z,61.21
2022-07-26T02:51:34.936Z,60.86
2022-07-26T02:54:02.373Z,61.16
2022-07-26T02:56:30.143Z,60.71
2022-07-26T02:58:58.516Z,60.68
2022-07-26T03:01:25.804Z,60.14
2022-07-26T03:03:53.195Z,60.58
2022-07-26T03:06:20.504Z,59.84
2022-07-26T03:08:48.705Z,60.85
2022-07-26T03:11:16.356Z,61.04
2022-07-26T03:13:43.671Z,61.30
2022-07-26T03:16:10.964Z,61.32
2022-07-26T03:18:39.164Z,60.89
2022-07-26T03:21:06.861Z,61.26
2022-07-26T03:23:35.146Z,60.34
2022-07-26T03:26:03.374Z,60.34
2022-07-26T03:28:31.819Z,60.22
2022-07-26T03:30:59.461Z,60.67
2022-07-26T03:33:26.819Z,60.27
2022-07-26T03:35:54.309Z,60.04
2022-07-26T03:38:22.355Z,60.20
2022-07-26T03:40:49.631Z,60.42
2022-07-26T03:43:20.084Z,60.19
2022-07-26T03:45:50.929Z,60.13
2022-07-26T03:48:21.489Z,60.44
2022-07-26T03:50:48.656Z,60.58
2022-07-26T03:53:15.908Z,60.99
2022-07-26T03:56:01.702Z,60.73
2022-07-26T03:58:28.980Z,60.38
2022-07-26T04:00:56.193Z,60.99
2022-07-26T04:03:23.383Z,60.72
2022-07-26T04:05:50.623Z,60.46
2022-07-26T04:08:20.065Z,60.19
2022-07-26T04:10:51.429Z,60.61
2022-07-26T04:13:20.020Z,61.03
2022-07-26T04:15:47.632Z,60.88
2022-07-26T04:18:15.294Z,61.09
2022-07-26T04:20:43.071Z,60.82
2022-07-26T04:23:11.583Z,61.44
2022-07-26T04:25:41.565Z,60.75
2022-07-26T04:28:10.466Z,60.65
2022-07-26T04:30:38.924Z,60.29
2022-07-26T04:33:06.594Z,59.83
2022-07-26T04:35:35.074Z,60.22
2022-07-26T04:38:02.702Z,59.92
2022-07-26T04:40:33.765Z,59.93
2022-07-26T04:43:02.287Z,59.75
2022-07-26T04:45:30.306Z,60.36
2022-07-26T04:47:58.069Z,60.18
2022-07-26T04:50:28.234Z,59.28
2022-07-26T04:52:56.379Z,59.57
2022-07-26T04:55:24.310Z,59.95
2022-07-26T04:57:51.956Z,59.83
2022-07-26T05:00:24.262Z,59.93
2022-07-26T05:02:59.390Z,59.32
2022-07-26T05:05:29.805Z,58.50
2022-07-26T05:08:02.973Z,61.16
2022-07-26T05:10:35.996Z,58.99
2022-07-26T05:13:06.092Z,58.34
2022-07-26T05:15:36.786Z,60.13
2022-07-26T05:18:10.321Z,60.12
2022-07-26T05:20:39.164Z,59.92
2022-07-26T05:23:06.870Z,58.92
2022-07-26T05:25:34.703Z,59.25
2022-07-26T05:28:02.266Z,58.48
2022-07-26T05:30:29.947Z,58.59
2022-07-26T05:32:57.267Z,59.80
2022-07-26T05:35:24.709Z,59.22
2022-07-26T05:37:51.989Z,59.51
2022-07-26T05:40:19.612Z,59.32
2022-07-26T05:42:49.119Z,58.96
2022-07-26T05:45:17.305Z,59.55
2022-07-26T05:47:44.577Z,59.00
2022-07-26T05:50:12.006Z,59.93
2022-07-26T05:52:39.796Z,59.13
2022-07-26T05:55:07.929Z,60.77
2022-07-26T05:57:35.320Z,59.86
2022-07-26T06:00:03.295Z,59.44
2022-07-26T06:02:43.798Z,60.20
2022-07-26T06:05:13.282Z,59.21
2022-07-26T06:07:40.516Z,59.31
2022-07-26T06:10:08.302Z,59.40
2022-07-26T06:12:36.049Z,59.08
2022-07-26T06:15:04.252Z,59.09
2022-07-26T06:17:43.426Z,59.19
2022-07-26T06:20:11.217Z,59.19
2022-07-26T06:22:38.505Z,59.77
2022-07-26T06:25:06.329Z,59.92
2022-07-26T06:27:33.550Z,59.78
2022-07-26T06:30:00.801Z,59.60
2022-07-26T06:32:28.167Z,59.25
2022-07-26T06:34:55.632Z,59.32
2022-07-26T06:37:23.208Z,59.03
2022-07-26T06:39:50.344Z,58.94
2022-07-26T06:42:17.697Z,60.34
2022-07-26T06:44:46.408Z,59.79
2022-07-26T06:47:14.453Z,60.81
2022-07-26T06:49:42.036Z,60.38
2022-07-26T06:52:09.255Z,60.94
2022-07-26T06:54:36.672Z,61.37
2022-07-26T06:57:06.454Z,60.60
2022-07-26T06:59:34.103Z,61.00
2022-07-26T07:02:04.419Z,60.82
2022-07-26T07:04:33.394Z,60.99
2022-07-26T07:07:05.134Z,61.60
2022-07-26T07:09:34.482Z,60.55
2022-07-26T07:12:10.307Z,60.80
2022-07-26T07:14:39.374Z,61.46
2022-07-26T07:17:12.173Z,61.33
2022-07-26T07:19:43.109Z,61.11
2022-07-26T07:22:12.533Z,61.53
2022-07-26T07:24:41.312Z,61.43
2022-07-26T07:27:10.602Z,61.84
2022-07-26T07:29:38.913Z,61.40
2022-07-26T07:32:09.034Z,60.87
2022-07-26T07:34:48.370Z,61.08
2022-07-26T07:37:16.904Z,61.14
2022-07-26T07:39:50.113Z,60.90
2022-07-26T07:42:19.480Z,60.38
2022-07-26T07:44:47.370Z,60.26
2022-07-26T07:47:14.933Z,61.06
2022-07-26T07:49:42.455Z,61.19
2022-07-26T07:52:09.774Z,61.80
2022-07-26T07:54:37.527Z,61.15
2022-07-26T07:57:05.507Z,60.66
2022-07-26T07:59:33.152Z,61.61
2022-07-26T08:02:06.881Z,61.17
2022-07-26T08:04:34.196Z,60.75
2022-07-26T08:07:01.431Z,60.60
2022-07-26T08:09:28.851Z,60.60
2022-07-26T08:11:56.425Z,60.40
2022-07-26T08:14:24.483Z,61.02
2022-07-26T08:16:52.347Z,60.44
2022-07-26T08:19:19.614Z,60.44
2022-07-26T08:21:49.870Z,60.28
2022-07-26T08:24:17.846Z,61.49
2022-07-26T08:26:45.137Z,61.32
2022-07-26T08:29:14.744Z,60.87
2022-07-26T08:31:43.001Z,60.49
2022-07-26T08:34:12.132Z,61.29
2022-07-26T08:36:49.597Z,61.93
2022-07-26T08:39:26.881Z,61.08
2022-07-26T08:41:54.564Z,62.11
2022-07-26T08:44:21.940Z,62.84
2022-07-26T08:46:49.387Z,61.69
2022-07-26T08:49:16.701Z,61.88
2022-07-26T08:51:44.816Z,61.80
2022-07-26T08:54:14.465Z,60.79
2022-07-26T08:56:49.900Z,60.86
2022-07-26T08:59:21.323Z,60.98
2022-07-26T09:02:08.138Z,61.00
2022-07-26T09:04:44.201Z,60.42
2022-07-26T09:07:17.568Z,60.43
2022-07-26T09:10:17.421Z,60.66
2022-07-26T09:12:45.505Z,60.53
2022-07-26T09:15:25.295Z,60.83
2022-07-26T09:17:55.854Z,60.21
2022-07-26T09:20:32.339Z,60.33
2022-07-26T09:23:06.979Z,59.83
2022-07-26T09:25:43.555Z,58.76
2022-07-26T09:28:30.539Z,59.07
2022-07-26T09:31:02.292Z,58.96
2022-07-26T09:33:50.457Z,58.34
2022-07-26T09:36:19.599Z,58.14
2022-07-26T09:38:53.456Z,58.25
2022-07-26T09:41:29.818Z,57.33
2022-07-26T09:44:01.848Z,57.11
2022-07-26T09:46:31.091Z,57.34
2022-07-26T09:49:16.626Z,57.41
2022-07-26T09:51:47.087Z,57.19
2022-07-26T09:54:29.687Z,57.44
2022-07-26T09:56:58.333Z,57.00
2022-07-26T09:59:29.971Z,56.63
2022-07-26T10:02:00.654Z,56.58
2022-07-26T10:04:30.813Z,56.30
2022-07-26T10:06:58.404Z,56.21
2022-07-26T10:09:31.678Z,56.30
2022-07-26T10:12:08.635Z,56.24
2022-07-26T10:14:45.668Z,55.58
2022-07-26T10:17:35.683Z,55.77
2022-07-26T10:20:10.730Z,55.42
2022-07-26T10:22:50.761Z,55.65
2022-07-26T10:25:18.209Z,55.60
2022-07-26T10:27:50.781Z,55.29
2022-07-26T10:30:22.713Z,55.02
2022-07-26T10:33:01.695Z,54.55
2022-07-26T10:35:35.111Z,53.91
2022-07-26T10:38:24.320Z,53.59
2022-07-26T10:41:03.578Z,53.42
2022-07-26T10:43:41.260Z,53.39
2022-07-26T10:46:31.133Z,53.45
2022-07-26T10:49:08.963Z,53.19
2022-07-26T10:51:41.722Z,53.32
2022-07-26T10:54:12.315Z,53.51
2022-07-26T10:56:41.021Z,53.47
2022-07-26T10:59:08.520Z,53.57
2022-07-26T11:01:43.441Z,53.63
2022-07-26T11:04:22.210Z,53.29
2022-07-26T11:06:50.129Z,52.57
2022-07-26T11:09:20.703Z,52.06
2022-07-26T11:11:49.076Z,52.24
2022-07-26T11:14:18.182Z,51.86
2022-07-26T11:16:52.811Z,52.12
2022-07-26T11:19:22.181Z,52.25
2022-07-26T11:22:00.254Z,52.05
2022-07-26T11:24:28.833Z,51.63
2022-07-26T11:26:57.263Z,51.71
2022-07-26T11:29:39.102Z,51.46
2022-07-26T11:32:25.430Z,51.45
2022-07-26T11:35:02.997Z,51.99
2022-07-26T11:37:31.759Z,51.85
2022-07-26T11:39:59.166Z,51.35
2022-07-26T11:42:26.659Z,51.35
2022-07-26T11:44:54.410Z,51.90
2022-07-26T11:47:25.283Z,51.31
2022-07-26T11:50:12.853Z,51.30
2022-07-26T11:52:42.084Z,51.62
2022-07-26T11:55:10.245Z,51.74
2022-07-26T11:57:38.356Z,51.47
2022-07-26T12:00:06.583Z,51.56
2022-07-26T12:02:39.873Z,51.40
2022-07-26T12:05:15.554Z,51.53
2022-07-26T12:08:01.030Z,51.83
2022-07-26T12:10:29.028Z,51.58
2022-07-26T12:13:14.014Z,51.11
2022-07-26T12:15:50.428Z,51.77
2022-07-26T12:18:26.082Z,51.64
2022-07-26T12:21:06.043Z,51.71
2022-07-26T12:23:48.958Z,51.50
2022-07-26T12:26:23.765Z,51.73
2022-07-26T12:28:51.712Z,51.72
2022-07-26T12:31:27.023Z,51.86
2022-07-26T12:33:54.811Z,51.76
2022-07-26T12:36:28.468Z,52.11
2022-07-26T12:38:59.985Z,51.65
2022-07-26T12:41:39.329Z,52.24
2022-07-26T12:44:11.872Z,52.03
2022-07-26T12:46:40.359Z,52.10
2022-07-26T12:49:07.699Z,51.92
2022-07-26T12:51:35.160Z,51.77
2022-07-26T12:54:03.697Z,51.69
2022-07-26T12:56:31.231Z,51.85
2022-07-26T12:59:02.297Z,51.63
2022-07-26T13:01:32.773Z,51.79
2022-07-26T13:04:01.023Z,51.97
2022-07-26T13:06:28.534Z,51.64
2022-07-26T13:08:56.766Z,51.23
2022-07-26T13:11:25.142Z,51.28
2022-07-26T13:13:52.977Z,50.97
2022-07-26T13:16:20.318Z,50.99
2022-07-26T13:18:47.817Z,51.25
2022-07-26T13:21:15.051Z,51.50
2022-07-26T13:23:42.305Z,51.80
2022-07-26T13:26:09.557Z,51.95
2022-07-26T13:28:38.195Z,52.36
2022-07-26T13:31:06.016Z,52.36
2022-07-26T13:33:33.933Z,52.28
2022-07-26T13:36:01.275Z,52.27
2022-07-26T13:38:29.261Z,51.97
2022-07-26T13:40:56.670Z,51.81
2022-07-26T13:43:24.703Z,51.68
2022-07-26T13:45:52.054Z,51.84
2022-07-26T13:48:19.394Z,51.49
2022-07-26T13:50:46.906Z,51.10
2022-07-26T13:53:14.166Z,50.72
2022-07-26T13:55:41.519Z,50.55
2022-07-26T13:58:10.156Z,50.20
2022-07-26T14:00:38.399Z,49.97
2022-07-26T14:03:06.035Z,49.96
2022-07-26T14:05:33.830Z,50.06
2022-07-26T14:08:01.659Z,49.73
2022-07-26T14:10:28.765Z,49.50
2022-07-26T14:12:56.127Z,48.94
2022-07-26T14:15:24.135Z,49.06
2022-07-26T14:17:52.733Z,49.05
2022-07-26T14:20:21.679Z,48.99
2022-07-26T14:22:53.524Z,49.01
2022-07-26T14:25:22.478Z,48.84
2022-07-26T14:27:54.329Z,48.82
2022-07-26T14:30:22.777Z,48.33
2022-07-26T14:32:50.408Z,48.27
2022-07-26T14:35:18.066Z,47.90
2022-07-26T14:37:46.039Z,48.21
2022-07-26T14:40:17.781Z,47.68
2022-07-26T14:42:46.605Z,47.96
2022-07-26T14:45:15.098Z,47.85
2022-07-26T14:47:43.280Z,47.86
2022-07-26T14:50:12.323Z,47.98
2022-07-26T14:52:42.536Z,47.83
2022-07-26T14:55:11.225Z,47.90
2022-07-26T14:57:40.359Z,48.49
2022-07-26T15:00:11.267Z,48.75
2022-07-26T15:02:43.795Z,49.08
2022-07-26T15:05:12.980Z,49.46
2022-07-26T15:07:41.793Z,49.97
2022-07-26T15:10:11.287Z,49.90
2022-07-26T15:12:39.265Z,50.06
2022-07-26T15:15:07.769Z,50.24
2022-07-26T15:17:35.679Z,50.16
2022-07-26T15:20:04.063Z,50.01
2022-07-26T15:22:31.598Z,50.12
2022-07-26T15:24:58.883Z,49.85
2022-07-26T15:27:26.189Z,50.03
2022-07-26T15:29:53.502Z,50.13
2022-07-26T15:32:21.576Z,50.51
2022-07-26T15:34:49.187Z,50.32
2022-07-26T15:37:16.513Z,50.16
2022-07-26T15:39:46.707Z,50.31
2022-07-26T15:42:15.364Z,50.32
2022-07-26T15:44:42.976Z,50.13
2022-07-26T15:47:11.718Z,50.30
2022-07-26T15:49:40.283Z,50.15
2022-07-26T15:52:11.599Z,50.46
2022-07-26T15:54:41.527Z,50.29
2022-07-26T15:57:09.527Z,50.92
2022-07-26T15:59:36.833Z,51.17
2022-07-26T16:02:08.375Z,51.09
2022-07-26T16:04:35.978Z,50.79
2022-07-26T16:07:03.296Z,51.89
2022-07-26T16:09:30.536Z,51.92
2022-07-26T16:12:00.488Z,52.84
2022-07-26T16:14:30.190Z,53.46
2022-07-26T16:17:00.537Z,53.66
2022-07-26T16:19:28.729Z,53.34
2022-07-26T16:21:55.958Z,53.10
2022-07-26T16:24:23.191Z,52.92
2022-07-26T16:26:51.425Z,52.33
2022-07-26T16:29:19.195Z,52.31
2022-07-26T16:31:47.106Z,52.42
2022-07-26T16:34:14.769Z,52.96
2022-07-26T16:36:42.936Z,53.38
2022-07-26T16:39:10.349Z,53.83
2022-07-26T16:41:38.093Z,54.10
2022-07-26T16:44:05.777Z,54.81
2022-07-26T16:46:33.122Z,55.16
2022-07-26T16:49:00.431Z,55.89
2022-07-26T16:51:27.900Z,56.40
2022-07-26T16:53:55.369Z,57.17
2022-07-26T16:56:22.639Z,57.96
2022-07-26T16:58:49.803Z,58.98
2022-07-26T17:01:17.293Z,59.83
2022-07-26T17:03:44.605Z,60.89
2022-07-26T17:06:11.953Z,61.26
2022-07-26T17:08:41.125Z,61.02
2022-07-26T17:11:08.542Z,61.35
2022-07-26T17:13:35.794Z,62.36
2022-07-26T17:16:03.771Z,62.87
2022-07-26T17:18:31.135Z,62.98
2022-07-26T17:20:58.478Z,63.53
2022-07-26T17:23:25.715Z,63.93
2022-07-26T17:25:53.498Z,64.16
2022-07-26T17:28:20.668Z,63.62
2022-07-26T17:30:47.878Z,63.63
2022-07-26T17:33:44.467Z,64.27
2022-07-26T17:36:26.359Z,64.04
2022-07-26T17:38:54.818Z,62.49
2022-07-26T17:41:23.484Z,62.29
2022-07-26T17:44:00.015Z,61.66
2022-07-26T17:46:27.236Z,61.45
2022-07-26T17:48:54.607Z,60.56
2022-07-26T17:51:22.009Z,60.30
2022-07-26T17:53:53.288Z,59.64
2022-07-26T17:56:20.764Z,59.71
2022-07-26T17:58:47.952Z,59.58
2022-07-26T18:01:16.094Z,58.97
2022-07-26T18:03:46.781Z,58.72
2022-07-26T18:06:14.394Z,58.80
2022-07-26T18:08:42.614Z,58.44
2022-07-26T18:11:10.957Z,58.29
2022-07-26T18:13:38.892Z,57.95
2022-07-26T18:16:06.602Z,57.77
2022-07-26T18:18:38.774Z,57.25
2022-07-26T18:21:06.357Z,57.34
2022-07-26T18:23:36.886Z,57.00
2022-07-26T18:26:04.577Z,56.97
2022-07-26T18:28:31.896Z,57.35
2022-07-26T18:30:59.272Z,57.18
2022-07-26T18:33:26.596Z,56.85
2022-07-26T18:35:54.150Z,56.94
2022-07-26T18:38:21.702Z,57.01
2022-07-26T18:40:49.525Z,56.53
2022-07-26T18:43:17.083Z,56.90
2022-07-26T18:45:44.606Z,56.86
2022-07-26T18:48:11.926Z,56.65
2022-07-26T18:50:40.981Z,56.65
2022-07-26T18:53:10.911Z,57.02
2022-07-26T18:55:38.160Z,57.25
2022-07-26T18:58:07.679Z,57.49
2022-07-26T19:00:38.775Z,57.65
2022-07-26T19:03:06.310Z,58.22
2022-07-26T19:05:35.528Z,57.16
2022-07-26T19:08:04.733Z,57.26
2022-07-26T19:10:33.013Z,56.84
2022-07-26T19:13:00.494Z,56.28
2022-07-26T19:15:28.224Z,56.41
2022-07-26T19:17:55.895Z,56.64
2022-07-26T19:20:23.214Z,56.45
2022-07-26T19:22:51.411Z,56.23
2022-07-26T19:25:19.173Z,57.43
2022-07-26T19:27:46.569Z,57.48
2022-07-26T19:30:14.040Z,58.30
2022-07-26T19:32:41.527Z,57.44
2022-07-26T19:35:09.541Z,57.60
2022-07-26T19:37:36.906Z,56.96
2022-07-26T19:40:05.690Z,56.49
2022-07-26T19:42:33.361Z,56.56
2022-07-26T19:45:00.834Z,56.58
2022-07-26T19:47:30.062Z,56.61
2022-07-26T19:49:59.456Z,56.53
2022-07-26T19:52:26.839Z,57.18
2022-07-26T19:54:54.416Z,58.40
2022-07-26T19:57:21.905Z,58.66
2022-07-26T19:59:49.355Z,59.46
2022-07-26T20:02:16.932Z,58.41
2022-07-26T20:04:46.189Z,58.32
2022-07-26T20:07:19.768Z,58.49
2022-07-26T20:09:48.440Z,58.15
2022-07-26T20:12:16.592Z,57.82
2022-07-26T20:14:44.578Z,57.39
2022-07-26T20:17:13.469Z,57.29
2022-07-26T20:19:41.245Z,58.73
2022-07-26T20:22:08.656Z,58.08
2022-07-26T20:24:38.137Z,59.06
2022-07-26T20:27:08.473Z,59.10
2022-07-26T20:29:35.802Z,59.68
2022-07-26T20:32:03.473Z,59.81
2022-07-26T20:34:33.419Z,60.65
2022-07-26T20:37:02.578Z,60.32
2022-07-26T20:39:30.215Z,60.72
2022-07-26T20:41:57.420Z,60.42
2022-07-26T20:44:28.125Z,61.06
2022-07-26T20:46:56.812Z,61.50
2022-07-26T20:49:24.280Z,61.72
2022-07-26T20:51:52.243Z,62.08
2022-07-26T20:54:19.730Z,62.50
2022-07-26T20:56:47.190Z,62.73
2022-07-26T20:59:15.085Z,62.60
2022-07-26T21:01:43.936Z,63.10
2022-07-26T21:04:12.108Z,62.88
2022-07-26T21:06:39.565Z,62.58
2022-07-26T21:09:09.264Z,61.81
2022-07-26T21:11:38.918Z,61.39
2022-07-26T21:14:06.390Z,60.72
2022-07-26T21:16:33.719Z,61.22
2022-07-26T21:19:02.133Z,60.89
2022-07-26T21:21:29.473Z,60.87
2022-07-26T21:23:56.681Z,60.15
2022-07-26T21:26:24.022Z,59.95
2022-07-26T21:28:51.297Z,60.75
2022-07-26T21:31:18.637Z,60.14
2022-07-26T21:33:46.057Z,61.15
2022-07-26T21:36:14.509Z,60.25
2022-07-26T21:38:42.057Z,60.00
2022-07-26T21:41:09.566Z,60.18
2022-07-26T21:43:40.807Z,61.55
2022-07-26T21:46:12.501Z,62.84
2022-07-26T21:48:41.462Z,62.84
2022-07-26T21:51:08.976Z,63.27
2022-07-26T21:53:36.569Z,63.60
2022-07-26T21:56:05.795Z,64.12
2022-07-26T21:58:36.676Z,64.84
2022-07-26T22:01:11.212Z,65.19
2022-07-26T22:03:40.402Z,63.33
2022-07-26T22:06:08.640Z,63.72
2022-07-26T22:08:37.041Z,62.61
2022-07-26T22:11:05.180Z,63.29
2022-07-26T22:13:32.408Z,63.84
2022-07-26T22:15:59.919Z,63.64
2022-07-26T22:18:27.334Z,64.73
2022-07-26T22:20:55.579Z,63.99
2022-07-26T22:23:23.396Z,64.67
2022-07-26T22:25:50.590Z,64.74
2022-07-26T22:28:18.655Z,64.65
2022-07-26T22:30:46.817Z,64.70
2022-07-26T22:33:14.116Z,65.27
2022-07-26T22:35:41.265Z,64.88
2022-07-26T22:38:10.535Z,65.89
2022-07-26T22:40:38.911Z,66.33
2022-07-26T22:43:06.382Z,66.21
2022-07-26T22:45:33.949Z,65.15
2022-07-26T22:48:05.188Z,65.28
2022-07-26T22:50:33.178Z,65.37
2022-07-26T22:53:03.577Z,64.70
2022-07-26T22:55:31.145Z,63.60
2022-07-26T22:57:58.638Z,64.46
2022-07-26T23:00:26.253Z,65.24
2022-07-26T23:02:53.876Z,64.30
2022-07-26T23:05:21.185Z,64.50
2022-07-26T23:08:01.758Z,65.19
2022-07-26T23:10:31.076Z,65.70
2022-07-26T23:12:58.243Z,65.99
2022-07-26T23:15:25.541Z,64.16
2022-07-26T23:17:52.941Z,63.29
2022-07-26T23:20:20.505Z,63.27
2022-07-26T23:22:47.771Z,64.63
2022-07-26T23:25:15.093Z,65.14
2022-07-26T23:27:42.235Z,65.62
2022-07-26T23:30:09.702Z,65.90
2022-07-26T23:32:37.029Z,66.00
2022-07-26T23:35:05.508Z,66.35
2022-07-26T23:37:32.817Z,66.69
2022-07-26T23:40:00.413Z,66.26
2022-07-26T23:42:27.508Z,66.82
2022-07-26T23:44:54.895Z,66.76
2022-07-26T23:47:22.159Z,66.77
2022-07-26T23:49:49.306Z,67.50
2022-07-26T23:52:16.806Z,67.54
2022-07-26T23:54:44.097Z,68.00
2022-07-26T23:57:11.482Z,67.99
2022-07-26T23:59:39.004Z,68.19
